Terminal Aerodrome Forecast
Issued by NWS

Home | Current Version | Previous Version | Graphics & Text | Print | Product List | Glossary On
Versions: 1 2 3 4 5 6 7 8 9 10 11 12 13 14
831
FTUS42 KMHX 010852 AAA
TAFPGV
TAF AMD
KPGV 010852Z 0109/0206 22012G22KT P6SM VCSH OVC015
     FM011000 26009KT P6SM SCT015 BKN025
     FM011300 29008KT P6SM SKC
      AMD LTD TO CLD VIS AND WIND=

USA.gov is the U.S. government's official web portal to all federal, state and local government web resources and services.